Time;durP1;ratioP1;P1;durP2;ratioP2;P2;SDS_P1;SDS_P2;PMS_P1;PMS_P2;Temp;Humidity;BMP_temperature;BMP_pressure;BME280_temperature;BME280_humidity;BME280_pressure;Samples;Min_cycle;Max_cycle;Signal;HPM_P1;HPM_P2
2023/10/01 00:00:05;;;;;;;17.00;11.13;;;15.90;99.90;;;;;;5052344;28;20048;-76
2023/10/01 00:02:32;;;;;;;;;;;15.90;99.90;;;;;;5048930;28;20459;-76
2023/10/01 00:04:58;;;;;;;14.88;10.90;;;15.80;99.90;;;;;;5051787;28;19973;-76
2023/10/01 00:07:23;;;;;;;17.67;11.43;;;15.90;99.90;;;;;;5053431;28;20048;-76
2023/10/01 00:09:49;;;;;;;16.10;11.68;;;15.90;99.90;;;;;;5052556;28;20044;-76
2023/10/01 00:12:15;;;;;;;18.20;11.13;;;15.90;99.90;;;;;;5047118;28;20041;-76
2023/10/01 00:14:41;;;;;;;14.90;11.10;;;15.90;99.90;;;;;;5052912;28;20124;-76
2023/10/01 00:17:08;;;;;;;16.17;12.48;;;15.90;99.90;;;;;;5071047;28;20060;-76
2023/10/01 00:19:33;;;;;;;15.13;11.20;;;15.90;99.90;;;;;;5073568;28;20040;-76
2023/10/01 00:22:00;;;;;;;18.42;12.63;;;15.80;99.90;;;;;;5075210;28;20056;-76
2023/10/01 00:24:26;;;;;;;16.88;12.57;;;15.80;99.90;;;;;;5071820;28;20044;-76
2023/10/01 00:26:52;;;;;;;17.15;11.55;;;15.80;99.90;;;;;;5071083;28;20445;-76
2023/10/01 00:29:18;;;;;;;17.52;12.57;;;15.80;99.90;;;;;;5073535;28;20139;-76
2023/10/01 00:31:45;;;;;;;16.38;13.00;;;15.80;99.90;;;;;;5077145;28;20053;-76
2023/10/01 00:34:12;;;;;;;17.60;12.52;;;15.70;99.90;;;;;;5075741;28;20048;-76
2023/10/01 00:36:38;;;;;;;18.98;13.05;;;15.70;99.90;;;;;;5079215;28;20142;-76
2023/10/01 00:39:03;;;;;;;18.40;13.27;;;15.70;99.90;;;;;;5074278;28;20128;-76
2023/10/01 00:41:29;;;;;;;17.52;13.18;;;15.70;99.90;;;;;;5071323;28;20044;-76
2023/10/01 00:44:00;;;;;;;19.10;14.18;;;15.60;99.90;;;;;;5069212;28;20056;-76
2023/10/01 00:46:25;;;;;;;16.63;13.80;;;15.60;99.90;;;;;;5084541;28;20051;-76
2023/10/01 00:48:52;;;;;;;18.42;14.55;;;15.60;99.90;;;;;;5077998;28;20071;-76
2023/10/01 00:51:20;;;;;;;19.02;14.15;;;15.60;99.90;;;;;;5071495;28;20044;-76
2023/10/01 00:53:45;;;;;;;;;;;15.60;99.90;;;;;;5071547;28;20468;-76
2023/10/01 00:56:12;;;;;;;18.13;14.23;;;15.60;99.90;;;;;;5080466;28;19930;-76
2023/10/01 00:58:38;;;;;;;19.40;14.73;;;15.50;99.90;;;;;;5083658;28;20036;-75
2023/10/01 01:01:07;;;;;;;18.80;14.50;;;15.50;99.90;;;;;;5073038;28;20501;-76
2023/10/01 01:03:35;;;;;;;18.67;14.98;;;15.50;99.90;;;;;;5073189;28;20094;-75
2023/10/01 01:06:17;;;;;;;17.90;14.60;;;15.50;99.90;;;;;;5070621;28;20048;-75
2023/10/01 01:08:46;;;;;;;18.88;15.43;;;15.50;99.90;;;;;;5072868;28;20090;-74
2023/10/01 01:11:15;;;;;;;18.02;14.98;;;15.50;99.90;;;;;;5077308;28;20040;-75
2023/10/01 01:13:45;;;;;;;18.15;15.32;;;15.40;99.90;;;;;;5072380;28;20036;-75
2023/10/01 01:16:12;;;;;;;18.70;14.95;;;15.50;99.90;;;;;;5082212;28;20419;-75
2023/10/01 01:18:41;;;;;;;17.40;15.48;;;15.50;99.90;;;;;;5065724;28;20063;-76
2023/10/01 01:21:13;;;;;;;18.80;14.98;;;15.50;99.90;;;;;;5074600;28;20058;-74
2023/10/01 01:23:45;;;;;;;18.83;16.13;;;15.50;99.90;;;;;;5073538;28;20040;-73
2023/10/01 01:26:13;;;;;;;19.27;15.68;;;15.50;99.90;;;;;;5092987;28;20488;-73
2023/10/01 01:28:41;;;;;;;18.52;16.45;;;15.50;99.90;;;;;;5080419;28;20043;-73
2023/10/01 01:31:10;;;;;;;18.05;16.05;;;15.50;99.90;;;;;;5070350;28;20123;-75
2023/10/01 01:33:52;;;;;;;20.60;16.00;;;15.50;99.90;;;;;;5069663;28;20512;-75
2023/10/01 01:36:19;;;;;;;18.70;16.70;;;15.50;99.90;;;;;;5098112;28;20048;-75
2023/10/01 01:39:26;;;;;;;18.90;16.67;;;15.50;99.90;;;;;;5076117;28;20440;-75
2023/10/01 01:41:52;;;;;;;22.38;16.38;;;15.50;99.90;;;;;;5092440;28;20051;-75
2023/10/01 01:44:19;;;;;;;18.85;16.80;;;15.50;99.90;;;;;;5072156;28;20651;-75
2023/10/01 01:46:48;;;;;;;21.75;16.92;;;15.40;99.90;;;;;;5080126;28;20054;-75
2023/10/01 01:49:18;;;;;;;20.08;17.05;;;15.50;99.90;;;;;;5088111;28;20051;-75
2023/10/01 01:51:57;;;;;;;20.92;17.02;;;15.40;99.90;;;;;;5075557;28;20519;-75
2023/10/01 01:54:37;;;;;;;19.45;16.95;;;15.50;99.90;;;;;;5072199;28;20056;-75
2023/10/01 01:57:03;;;;;;;18.85;16.48;;;15.50;99.90;;;;;;5070602;28;20126;-75
2023/10/01 01:59:29;;;;;;;19.58;16.98;;;15.40;99.90;;;;;;5094326;28;20524;-76
2023/10/01 02:01:56;;;;;;;19.52;15.98;;;15.50;99.90;;;;;;5080877;28;20039;-76
2023/10/01 02:04:25;;;;;;;21.52;16.85;;;15.50;99.90;;;;;;5086318;28;20044;-75
2023/10/01 02:06:52;;;;;;;19.58;15.75;;;15.50;99.90;;;;;;5072436;28;20743;-76
2023/10/01 02:09:24;;;;;;;18.55;15.73;;;15.50;99.90;;;;;;5073569;28;20059;-75
2023/10/01 02:11:50;;;;;;;19.42;16.15;;;15.50;99.90;;;;;;5078049;28;20119;-75
2023/10/01 02:14:32;;;;;;;17.33;15.57;;;15.50;99.90;;;;;;5096407;28;20044;-75
2023/10/01 02:17:15;;;;;;;18.20;15.70;;;15.50;99.90;;;;;;5072804;28;20057;-75
2023/10/01 02:19:46;;;;;;;17.02;15.23;;;15.50;99.90;;;;;;5070244;28;20041;-75
2023/10/01 02:22:12;;;;;;;19.95;16.58;;;15.50;99.90;;;;;;5069396;28;20051;-75
2023/10/01 02:24:45;;;;;;;18.90;16.38;;;15.50;99.90;;;;;;5068027;28;20056;-75
2023/10/01 02:27:18;;;;;;;19.02;15.93;;;15.50;99.90;;;;;;5069569;28;21014;-73
2023/10/01 02:32:33;;;;;;;18.85;15.65;;;15.50;99.90;;;;;;5068311;28;20053;-74
2023/10/01 02:34:59;;;;;;;20.42;16.48;;;15.50;99.90;;;;;;5086635;28;20051;-74
2023/10/01 02:37:35;;;;;;;17.60;15.32;;;15.50;99.90;;;;;;5054660;28;20029;-74
2023/10/01 02:40:14;;;;;;;19.23;16.58;;;15.50;99.90;;;;;;5072105;28;20658;-74
2023/10/01 02:42:43;;;;;;;18.42;16.40;;;15.50;99.90;;;;;;5065911;28;20131;-74
2023/10/01 02:45:30;;;;;;;18.88;16.73;;;15.50;99.90;;;;;;5072913;28;20411;-74
2023/10/01 02:48:13;;;;;;;20.37;16.73;;;15.50;99.90;;;;;;5069553;28;20571;-74
2023/10/01 02:50:45;;;;;;;21.60;16.98;;;15.50;99.90;;;;;;5072557;28;20047;-74
2023/10/01 02:53:13;;;;;;;18.67;16.30;;;15.50;99.90;;;;;;5079909;28;20048;-74
2023/10/01 02:55:44;;;;;;;19.10;16.58;;;15.50;99.90;;;;;;5070020;28;20044;-74
2023/10/01 02:58:18;;;;;;;19.05;16.48;;;15.50;99.90;;;;;;5065818;28;20063;-74
2023/10/01 03:00:45;;;;;;;19.83;17.13;;;15.50;99.90;;;;;;5073584;28;20043;-74
2023/10/01 03:03:17;;;;;;;19.67;16.55;;;15.50;99.90;;;;;;5078797;28;20144;-73
2023/10/01 03:05:47;;;;;;;19.10;16.70;;;15.50;99.90;;;;;;5072350;28;20080;-74
2023/10/01 03:11:02;;;;;;;23.63;17.20;;;15.50;99.90;;;;;;5074869;28;20070;-74
2023/10/01 03:13:30;;;;;;;19.98;17.05;;;15.50;99.90;;;;;;5069288;28;20147;-74
2023/10/01 03:18:46;;;;;;;21.08;16.95;;;15.50;99.90;;;;;;5079669;28;20716;-74
2023/10/01 03:21:19;;;;;;;18.13;16.25;;;15.40;99.90;;;;;;5064637;28;20098;-74
2023/10/01 03:23:51;;;;;;;21.30;17.35;;;15.50;99.90;;;;;;5066365;28;20048;-74
2023/10/01 03:26:17;;;;;;;18.67;16.70;;;15.50;99.90;;;;;;5069878;28;20048;-74
2023/10/01 03:31:29;;;;;;;19.20;16.58;;;15.40;99.90;;;;;;5071610;28;20515;-74
2023/10/01 03:33:54;;;;;;;20.67;17.33;;;15.40;99.90;;;;;;5070130;28;20094;-74
2023/10/01 03:36:25;;;;;;;18.40;16.33;;;15.40;99.90;;;;;;5071752;28;20041;-74
2023/10/01 03:38:59;;;;;;;18.70;16.35;;;15.50;99.90;;;;;;5066259;28;20040;-75
2023/10/01 03:41:27;;;;;;;19.10;16.25;;;15.40;99.90;;;;;;5081553;28;20536;-74
2023/10/01 03:44:08;;;;;;;22.27;16.52;;;15.40;99.90;;;;;;5070338;28;20578;-74
2023/10/01 03:46:42;;;;;;;16.67;14.82;;;15.50;99.90;;;;;;5053099;28;20044;-74
2023/10/01 03:51:53;;;;;;;18.02;15.77;;;15.40;99.90;;;;;;5077242;28;20044;-74
2023/10/01 03:54:20;;;;;;;18.52;15.90;;;15.40;99.90;;;;;;5068106;28;20045;-74
2023/10/01 03:56:58;;;;;;;;;;;15.40;99.90;;;;;;5071577;28;20083;-74
2023/10/01 03:59:28;;;;;;;19.42;15.57;;;15.40;99.90;;;;;;5074877;28;19924;-74
2023/10/01 04:02:02;;;;;;;21.92;15.88;;;15.40;99.90;;;;;;5079979;28;20052;-74
2023/10/01 04:04:56;;;;;;;18.17;15.63;;;15.40;99.90;;;;;;5071069;28;20045;-74
2023/10/01 04:07:18;;;;;;;19.17;15.98;;;15.40;99.90;;;;;;5076004;28;20175;-74
2023/10/01 04:09:51;;;;;;;18.27;14.40;;;15.40;99.90;;;;;;5070958;28;20138;-75
2023/10/01 04:12:20;;;;;;;15.98;14.18;;;15.40;99.90;;;;;;5083136;28;20050;-75
2023/10/01 04:14:49;;;;;;;17.52;14.55;;;15.40;99.90;;;;;;5080992;28;20455;-75
2023/10/01 04:17:25;;;;;;;18.45;14.85;;;15.40;99.90;;;;;;5084281;28;20588;-75
2023/10/01 04:20:00;;;;;;;16.60;14.80;;;15.40;99.90;;;;;;5074028;28;20101;-75
2023/10/01 04:22:28;;;;;;;18.98;14.00;;;15.40;99.90;;;;;;5082982;28;20048;-75
2023/10/01 04:25:10;;;;;;;18.27;14.32;;;15.40;99.90;;;;;;5072151;28;20048;-75
2023/10/01 04:27:41;;;;;;;17.00;14.25;;;15.40;99.90;;;;;;5075522;28;20056;-75
2023/10/01 04:30:09;;;;;;;16.23;13.80;;;15.50;99.90;;;;;;5085325;28;20055;-75
2023/10/01 04:32:36;;;;;;;17.77;14.80;;;15.40;99.90;;;;;;5073710;28;20518;-75
2023/10/01 04:35:14;;;;;;;16.67;13.80;;;15.40;99.90;;;;;;5079483;28;20114;-75
2023/10/01 04:37:42;;;;;;;16.15;13.98;;;15.50;99.90;;;;;;5078479;28;20051;-75
2023/10/01 04:40:31;;;;;;;;;;;15.50;99.90;;;;;;5067568;28;20123;-75
2023/10/01 04:43:03;;;;;;;17.25;13.57;;;15.40;99.90;;;;;;5071315;28;19927;-75
2023/10/01 04:45:36;;;;;;;17.23;13.60;;;15.40;99.90;;;;;;5076505;28;20067;-75
2023/10/01 04:48:15;;;;;;;18.25;13.82;;;15.40;99.90;;;;;;5070688;28;20044;-75
2023/10/01 04:50:42;;;;;;;17.98;13.63;;;15.40;99.90;;;;;;5073066;28;20047;-74
2023/10/01 04:53:07;;;;;;;17.70;14.47;;;15.40;99.90;;;;;;5070535;28;20082;-74
2023/10/01 04:55:41;;;;;;;18.08;14.10;;;15.40;99.90;;;;;;5079252;28;20306;-74
2023/10/01 04:58:14;;;;;;;16.73;13.70;;;15.40;99.90;;;;;;5070194;28;20427;-74
2023/10/01 05:00:46;;;;;;;18.52;14.23;;;15.40;99.90;;;;;;5072431;28;20044;-74
2023/10/01 05:03:15;;;;;;;18.67;13.68;;;15.50;99.90;;;;;;5078851;28;20040;-75
2023/10/01 05:05:42;;;;;;;16.95;13.27;;;15.40;99.90;;;;;;5079336;28;20049;-74
2023/10/01 05:08:15;;;;;;;16.17;12.63;;;15.40;99.90;;;;;;5071319;28;20063;-74
2023/10/01 05:10:56;;;;;;;16.77;12.15;;;15.40;99.90;;;;;;5070105;28;20067;-75
2023/10/01 05:13:22;;;;;;;15.93;12.70;;;15.40;99.90;;;;;;5068509;28;20084;-75
2023/10/01 05:15:57;;;;;;;18.37;12.63;;;15.50;99.90;;;;;;5074991;28;20084;-74
2023/10/01 05:18:26;;;;;;;17.25;12.82;;;15.50;99.90;;;;;;5067289;28;20056;-75
2023/10/01 05:20:59;;;;;;;16.42;12.55;;;15.50;99.90;;;;;;5069522;28;20036;-75
2023/10/01 05:23:29;;;;;;;19.45;13.20;;;15.40;99.90;;;;;;5079074;28;20044;-75
2023/10/01 05:25:59;;;;;;;19.15;13.77;;;15.40;99.90;;;;;;5075343;28;20419;-74
2023/10/01 05:28:31;;;;;;;18.17;13.60;;;15.40;99.90;;;;;;5073948;28;20506;-74
2023/10/01 05:31:15;;;;;;;18.05;13.40;;;15.40;99.90;;;;;;5073326;28;20052;-74
2023/10/01 05:33:52;;;;;;;19.63;13.15;;;15.50;99.90;;;;;;5072174;28;20083;-74
2023/10/01 05:36:18;;;;;;;16.00;11.98;;;15.40;99.90;;;;;;5073121;28;20052;-74
2023/10/01 05:38:44;;;;;;;17.58;12.10;;;15.40;99.90;;;;;;5074740;28;20040;-74
2023/10/01 05:41:15;;;;;;;17.55;12.65;;;15.50;99.90;;;;;;5073587;28;20105;-75
2023/10/01 05:43:50;;;;;;;15.55;11.57;;;15.50;99.90;;;;;;5075173;28;20044;-75
2023/10/01 05:46:17;;;;;;;15.90;12.57;;;15.50;99.90;;;;;;5074466;28;20047;-75
2023/10/01 05:48:44;;;;;;;15.68;12.43;;;15.50;99.90;;;;;;5068123;28;20051;-75
2023/10/01 05:51:19;;;;;;;16.27;13.53;;;15.50;99.90;;;;;;5078441;28;20048;-75
2023/10/01 05:53:46;;;;;;;15.93;12.73;;;15.50;99.90;;;;;;5079709;28;20302;-75
2023/10/01 05:56:17;;;;;;;18.38;13.20;;;15.50;99.90;;;;;;5077894;28;20071;-75
2023/10/01 05:58:43;;;;;;;17.60;13.07;;;15.50;99.90;;;;;;5070720;28;20041;-75
2023/10/01 06:01:16;;;;;;;19.95;13.75;;;15.50;99.90;;;;;;5081187;28;20036;-74
2023/10/01 06:03:45;;;;;;;17.10;13.65;;;15.50;99.90;;;;;;5072019;28;20484;-75
2023/10/01 06:06:14;;;;;;;18.25;13.32;;;15.50;99.90;;;;;;5069457;28;20396;-75
2023/10/01 06:08:46;;;;;;;18.17;13.55;;;15.50;99.90;;;;;;5069936;28;20046;-75
2023/10/01 06:11:15;;;;;;;17.42;13.63;;;15.50;99.90;;;;;;5069513;28;20271;-75
2023/10/01 06:13:51;;;;;;;17.88;13.50;;;15.50;99.90;;;;;;5069186;28;20131;-75
2023/10/01 06:16:23;;;;;;;18.45;13.05;;;15.40;99.90;;;;;;5085862;28;20547;-75
2023/10/01 06:18:57;;;;;;;17.15;12.85;;;15.40;99.90;;;;;;5078897;28;20032;-75
2023/10/01 06:21:25;;;;;;;19.45;13.40;;;15.40;99.90;;;;;;5078268;28;20044;-75
2023/10/01 06:23:58;;;;;;;17.95;13.70;;;15.40;99.90;;;;;;5075816;28;20512;-75
2023/10/01 06:26:42;;;;;;;20.30;14.07;;;15.50;99.90;;;;;;5077163;28;20376;-75
2023/10/01 06:29:11;;;;;;;18.92;13.40;;;15.40;99.90;;;;;;5067254;28;20048;-75
2023/10/01 06:32:00;;;;;;;17.38;13.43;;;15.40;99.90;;;;;;5071045;28;20048;-75
2023/10/01 06:34:31;;;;;;;19.00;13.18;;;15.40;99.90;;;;;;5071657;28;20048;-75
2023/10/01 06:37:01;;;;;;;22.48;13.35;;;15.40;99.90;;;;;;5070396;28;20198;-74
2023/10/01 06:39:30;;;;;;;17.83;12.68;;;15.40;99.90;;;;;;5069486;28;20056;-76
2023/10/01 06:44:41;;;;;;;17.40;12.32;;;15.50;99.90;;;;;;5073126;28;20449;-72
2023/10/01 06:47:14;;;;;;;19.17;12.35;;;15.50;99.90;;;;;;5076171;28;20040;-77
2023/10/01 06:49:57;;;;;;;16.15;12.48;;;15.50;99.90;;;;;;5069646;28;20052;-74
2023/10/01 06:52:27;;;;;;;18.25;13.60;;;15.50;99.90;;;;;;5068131;28;20048;-77
2023/10/01 06:54:57;;;;;;;18.08;12.20;;;15.50;99.90;;;;;;5082204;28;20044;-73
2023/10/01 06:57:33;;;;;;;18.30;12.50;;;15.50;99.90;;;;;;5072056;28;20352;-76
2023/10/01 06:59:59;;;;;;;16.33;12.40;;;15.50;99.90;;;;;;5069540;28;20422;-74
2023/10/01 07:02:28;;;;;;;19.10;12.95;;;15.50;99.90;;;;;;5071934;28;20074;-75
2023/10/01 07:05:00;;;;;;;18.10;13.00;;;15.60;99.90;;;;;;5068950;28;20167;-75
2023/10/01 07:07:28;;;;;;;16.27;12.57;;;15.60;99.90;;;;;;5079001;28;20113;-76
2023/10/01 07:09:56;;;;;;;16.70;12.45;;;15.60;99.90;;;;;;5069370;28;20411;-75
2023/10/01 07:12:23;;;;;;;;;;;15.60;99.90;;;;;;5068647;28;20504;-78
2023/10/01 07:14:53;;;;;;;17.52;12.48;;;15.60;99.90;;;;;;5079123;28;19928;-77
2023/10/01 07:17:25;;;;;;;16.38;12.55;;;15.60;99.90;;;;;;5067709;28;20072;-77
2023/10/01 07:20:00;;;;;;;18.88;13.57;;;15.60;99.90;;;;;;5069957;28;20048;-76
2023/10/01 07:22:34;;;;;;;18.02;12.90;;;15.60;99.90;;;;;;5067192;28;20045;-73
2023/10/01 07:25:28;;;;;;;19.83;13.60;;;15.60;99.90;;;;;;5069040;28;20097;-74
2023/10/01 07:27:51;;;;;;;24.33;14.48;;;15.60;99.90;;;;;;5072171;28;20450;-74
2023/10/01 07:30:18;;;;;;;19.15;12.85;;;15.60;99.90;;;;;;5075399;28;20078;-74
2023/10/01 07:32:44;;;;;;;18.38;13.38;;;15.60;99.90;;;;;;5068771;28;20080;-75
2023/10/01 07:35:13;;;;;;;16.65;12.93;;;15.60;99.90;;;;;;5081301;28;20051;-75
2023/10/01 07:37:41;;;;;;;18.45;13.23;;;15.60;99.90;;;;;;5073713;28;20045;-73
2023/10/01 07:40:16;;;;;;;17.38;12.70;;;15.60;99.90;;;;;;5068776;28;20421;-73
2023/10/01 07:42:49;;;;;;;19.42;13.20;;;15.60;99.90;;;;;;5071704;28;20085;-75
2023/10/01 07:45:19;;;;;;;17.13;12.80;;;15.60;99.90;;;;;;5074897;28;20243;-75
2023/10/01 07:47:48;;;;;;;20.60;13.27;;;15.70;99.90;;;;;;5075438;28;20089;-75
2023/10/01 07:50:16;;;;;;;17.70;12.73;;;15.70;99.90;;;;;;5074590;28;20050;-75
2023/10/01 07:52:44;;;;;;;17.08;12.20;;;15.70;99.90;;;;;;5070145;28;20037;-75
2023/10/01 07:55:35;;;;;;;18.88;11.95;;;15.70;99.90;;;;;;5070936;28;20046;-76
2023/10/01 08:00:47;;;;;;;18.85;11.73;;;15.80;99.90;;;;;;5069178;28;20148;-75
2023/10/01 08:05:49;;;;;;;19.08;11.85;;;15.90;99.90;;;;;;5070746;28;20703;-74
2023/10/01 08:13:58;;;;;;;17.75;11.90;;;16.10;99.90;;;;;;5068603;28;20044;-75
2023/10/01 08:16:24;;;;;;;17.85;11.25;;;16.10;99.90;;;;;;5066913;28;20118;-75
2023/10/01 08:18:59;;;;;;;20.73;11.87;;;16.20;99.90;;;;;;5068216;28;20472;-75
2023/10/01 08:21:37;;;;;;;14.40;10.88;;;16.30;99.90;;;;;;5071029;28;20072;-75
2023/10/01 08:24:09;;;;;;;;;;;16.30;99.90;;;;;;5068387;28;20044;-75
2023/10/01 08:26:50;;;;;;;16.75;11.05;;;16.40;99.90;;;;;;5071205;28;19972;-74
2023/10/01 08:29:16;;;;;;;15.02;10.02;;;16.50;99.90;;;;;;5074297;28;20037;-75
2023/10/01 08:34:27;;;;;;;17.33;10.30;;;16.60;99.90;;;;;;5067943;28;20544;-75
2023/10/01 08:36:57;;;;;;;16.30;10.02;;;16.60;99.90;;;;;;5069677;28;20832;-75
2023/10/01 08:42:12;;;;;;;14.88;9.27;;;16.60;99.90;;;;;;5078922;28;20558;-74
2023/10/01 08:44:46;;;;;;;17.17;10.18;;;16.60;99.90;;;;;;5076408;28;20032;-74
2023/10/01 08:47:36;;;;;;;16.27;10.52;;;16.60;99.90;;;;;;5078813;28;20076;-75
2023/10/01 08:50:17;;;;;;;14.63;9.68;;;16.70;99.90;;;;;;5083384;28;20060;-74
2023/10/01 08:52:58;;;;;;;15.85;9.73;;;16.70;99.90;;;;;;5082038;28;20048;-74
2023/10/01 08:55:25;;;;;;;17.00;9.55;;;16.70;99.90;;;;;;5080829;28;20048;-75
2023/10/01 08:57:55;;;;;;;17.33;9.43;;;16.70;99.90;;;;;;5080103;28;20032;-75
2023/10/01 09:00:24;;;;;;;14.68;9.40;;;16.70;99.90;;;;;;5080845;28;20048;-75
2023/10/01 09:03:10;;;;;;;17.83;9.80;;;16.80;99.90;;;;;;5073753;28;20140;-75
2023/10/01 09:05:36;;;;;;;14.65;9.02;;;16.80;99.90;;;;;;5073404;28;20048;-75
2023/10/01 09:08:15;;;;;;;14.18;9.45;;;16.80;99.90;;;;;;5076902;28;20055;-74
2023/10/01 09:10:51;;;;;;;14.00;9.10;;;16.90;99.90;;;;;;5079954;28;20028;-73
2023/10/01 09:13:21;;;;;;;16.10;9.30;;;17.00;99.90;;;;;;5074226;28;20480;-75
2023/10/01 09:15:57;;;;;;;14.85;8.85;;;17.00;99.90;;;;;;5082455;28;20052;-76
2023/10/01 09:18:26;;;;;;;16.55;10.20;;;17.10;99.90;;;;;;5083163;28;20082;-75
2023/10/01 09:21:08;;;;;;;15.18;9.65;;;17.20;99.90;;;;;;5073332;28;20040;-74
2023/10/01 09:24:12;;;;;;;15.35;9.13;;;17.30;99.90;;;;;;5054538;28;20078;-76
2023/10/01 09:26:53;;;;;;;13.38;9.13;;;17.30;99.90;;;;;;5070372;28;20083;-75
2023/10/01 09:29:25;;;;;;;17.67;9.70;;;17.40;99.90;;;;;;5072613;28;20040;-74
2023/10/01 09:31:58;;;;;;;16.27;9.07;;;17.50;99.90;;;;;;5069791;28;20049;-74
2023/10/01 09:34:36;;;;;;;15.45;9.85;;;17.50;99.90;;;;;;5071519;28;20074;-73
2023/10/01 09:37:11;;;;;;;15.10;9.48;;;17.60;99.90;;;;;;5068802;28;20040;-73
2023/10/01 09:39:41;;;;;;;17.13;9.80;;;17.60;99.90;;;;;;5072589;28;20052;-75
2023/10/01 09:42:25;;;;;;;16.50;9.75;;;17.70;99.90;;;;;;5076725;28;20624;-78
2023/10/01 09:44:53;;;;;;;15.73;9.77;;;17.70;99.90;;;;;;5076540;28;20044;-75
2023/10/01 09:47:24;;;;;;;16.90;9.88;;;17.70;99.90;;;;;;5083066;28;20040;-77
2023/10/01 09:49:54;;;;;;;15.20;9.80;;;17.80;99.90;;;;;;5071217;28;20052;-76
2023/10/01 09:52:27;;;;;;;16.80;9.57;;;17.80;99.90;;;;;;5082963;28;20120;-76
2023/10/01 09:55:06;;;;;;;16.27;10.40;;;17.90;99.90;;;;;;5077336;28;20048;-75
2023/10/01 09:57:34;;;;;;;19.27;10.25;;;17.90;99.90;;;;;;5073441;28;20130;-76
2023/10/01 10:00:17;;;;;;;17.90;9.43;;;17.90;99.90;;;;;;5068136;28;21251;-73
2023/10/01 10:02:53;;;;;;;15.85;10.13;;;17.90;99.90;;;;;;5083078;28;20037;-76
2023/10/01 10:05:26;;;;;;;15.73;10.00;;;18.00;99.90;;;;;;5083763;28;20080;-76
2023/10/01 10:08:13;;;;;;;16.00;10.02;;;18.00;99.90;;;;;;5067391;28;20044;-77
2023/10/01 10:10:52;;;;;;;14.77;9.38;;;18.10;99.90;;;;;;5072017;28;20044;-77
2023/10/01 10:13:48;;;;;;;17.25;9.75;;;18.20;99.90;;;;;;5081174;28;20036;-79
2023/10/01 10:16:31;;;;;;;17.48;9.85;;;18.30;99.90;;;;;;5086498;28;20051;-81
2023/10/01 10:19:13;;;;;;;18.05;9.98;;;18.40;99.90;;;;;;5077229;28;20094;-79
2023/10/01 10:24:29;;;;;;;18.17;10.13;;;18.40;99.90;;;;;;5068271;28;20103;-80
2023/10/01 10:27:01;;;;;;;16.52;9.50;;;18.50;99.90;;;;;;5072840;28;20481;-74
2023/10/01 10:32:24;;;;;;;17.92;9.68;;;18.60;99.90;;;;;;5068365;28;20091;-74
2023/10/01 10:35:14;;;;;;;17.15;9.75;;;18.60;99.90;;;;;;5077870;28;20040;-75
2023/10/01 10:37:44;;;;;;;17.35;9.63;;;18.70;99.90;;;;;;5068831;28;20051;-74
2023/10/01 10:43:04;;;;;;;14.98;9.63;;;18.80;99.90;;;;;;5073541;28;20391;-74
2023/10/01 10:45:43;;;;;;;16.35;9.43;;;18.80;99.90;;;;;;5081093;28;20051;-74
2023/10/01 10:48:10;;;;;;;18.83;9.65;;;18.90;99.90;;;;;;5071388;28;20048;-75
2023/10/01 10:50:49;;;;;;;17.98;10.00;;;18.90;99.90;;;;;;5068733;28;20088;-75
2023/10/01 10:53:39;;;;;;;17.65;10.13;;;19.00;99.90;;;;;;5067923;28;20056;-74
2023/10/01 10:56:35;;;;;;;15.77;9.27;;;19.10;99.90;;;;;;5074348;28;20044;-75
2023/10/01 10:59:03;;;;;;;17.38;9.45;;;19.20;99.90;;;;;;5078456;28;20063;-77
2023/10/01 11:01:56;;;;;;;15.45;9.07;;;19.30;99.90;;;;;;5073925;28;20132;-74
2023/10/01 11:04:16;;;;;;;15.88;9.25;;;19.30;99.90;;;;;;5060864;28;20052;-75
2023/10/01 11:06:42;;;;;;;17.97;9.27;;;19.50;99.90;;;;;;5068204;28;20041;-75
2023/10/01 11:09:22;;;;;;;14.60;8.48;;;19.50;99.90;;;;;;5072189;28;20039;-76
2023/10/01 11:11:49;;;;;;;16.52;8.73;;;19.60;99.90;;;;;;5075130;28;20052;-76
2023/10/01 11:14:18;;;;;;;17.80;9.30;;;19.70;99.90;;;;;;5077830;28;20083;-76
2023/10/01 11:16:45;;;;;;;18.05;9.48;;;19.70;99.90;;;;;;5066240;28;20052;-76
2023/10/01 11:19:14;;;;;;;15.45;8.80;;;19.80;99.90;;;;;;5080841;28;20433;-75
2023/10/01 11:21:58;;;;;;;19.88;9.48;;;19.80;99.90;;;;;;5070832;28;20494;-78
2023/10/01 11:24:25;;;;;;;19.15;9.68;;;19.80;99.90;;;;;;5068213;28;20492;-82
2023/10/01 11:27:14;;;;;;;15.55;9.05;;;19.90;99.90;;;;;;5068184;28;20037;-76
2023/10/01 11:30:00;;;;;;;17.35;9.45;;;19.90;99.90;;;;;;5059185;28;20055;-77
2023/10/01 11:35:59;;;;;;;18.65;9.77;;;20.10;99.90;;;;;;5067561;28;20458;-78
2023/10/01 11:38:25;;;;;;;;;;;20.20;99.90;;;;;;5068254;28;20060;-78
2023/10/01 11:41:18;;;;;;;18.92;10.13;;;20.20;99.90;;;;;;5082715;28;20375;-79
2023/10/01 11:44:00;;;;;;;16.23;9.68;;;20.30;99.90;;;;;;5071201;28;20052;-79
2023/10/01 11:46:32;;;;;;;18.40;9.00;;;20.40;99.90;;;;;;5066849;28;20109;-77
2023/10/01 11:49:18;;;;;;;14.85;9.15;;;20.40;99.90;;;;;;5060965;28;20053;-75
2023/10/01 11:51:45;;;;;;;18.88;9.80;;;20.50;99.90;;;;;;5070206;28;20094;-74
2023/10/01 11:54:15;;;;;;;15.20;9.25;;;20.50;99.90;;;;;;5067611;28;20045;-75
2023/10/01 11:56:43;;;;;;;18.63;10.27;;;20.50;99.90;;;;;;5073158;28;20055;-75
2023/10/01 11:59:17;;;;;;;17.48;9.95;;;20.50;99.90;;;;;;5063965;28;20060;-74
2023/10/01 12:01:52;;;;;;;18.50;10.25;;;20.50;99.90;;;;;;5066991;28;20055;-75
2023/10/01 12:07:16;;;;;;;15.48;9.32;;;20.60;99.90;;;;;;5077988;28;20060;-74
2023/10/01 12:09:49;;;;;;;18.73;10.18;;;20.60;99.90;;;;;;5080481;28;20125;-76
2023/10/01 12:12:19;;;;;;;19.88;10.70;;;20.60;99.90;;;;;;5074243;28;20081;-77
2023/10/01 12:17:23;;;;;;;18.20;9.75;;;20.60;99.90;;;;;;5070086;28;20215;-77
2023/10/01 12:20:21;;;;;;;16.27;9.70;;;20.60;99.90;;;;;;5070762;28;20098;-77
2023/10/01 12:23:04;;;;;;;19.85;10.02;;;20.70;99.90;;;;;;5062254;28;20445;-76
2023/10/01 12:25:50;;;;;;;19.15;9.25;;;20.70;99.90;;;;;;5069827;28;20075;-78
2023/10/01 12:28:24;;;;;;;16.63;9.45;;;20.80;99.90;;;;;;5072326;28;20040;-77
2023/10/01 12:31:02;;;;;;;16.20;9.25;;;20.90;99.90;;;;;;5073310;28;20076;-78
2023/10/01 12:33:38;;;;;;;15.18;9.32;;;21.00;99.90;;;;;;5081500;28;20056;-78
2023/10/01 12:36:31;;;;;;;18.27;9.60;;;21.00;99.90;;;;;;5070359;28;20487;-78
2023/10/01 12:39:16;;;;;;;16.63;9.27;;;21.10;99.90;;;;;;5075757;28;20048;-78
2023/10/01 12:41:56;;;;;;;16.63;9.45;;;21.20;99.90;;;;;;5081560;28;20053;-78
2023/10/01 12:44:33;;;;;;;14.30;8.85;;;21.20;99.90;;;;;;5070226;28;20127;-77
2023/10/01 12:47:01;;;;;;;17.52;8.65;;;21.20;99.90;;;;;;5070809;28;20076;-78
2023/10/01 12:49:35;;;;;;;17.08;9.05;;;21.20;99.90;;;;;;5072900;28;20147;-78
2023/10/01 12:52:05;;;;;;;16.13;8.52;;;21.30;99.90;;;;;;5074928;28;20062;-78
2023/10/01 12:54:36;;;;;;;16.08;8.60;;;21.30;99.90;;;;;;5069570;28;20048;-77
2023/10/01 12:57:02;;;;;;;13.25;8.15;;;21.40;99.90;;;;;;5072508;28;20487;-78
2023/10/01 12:59:39;;;;;;;14.13;8.48;;;21.40;99.90;;;;;;5070685;28;20083;-78
2023/10/01 13:07:43;;;;;;;13.70;8.13;;;21.60;99.90;;;;;;5069519;28;20065;-78
2023/10/01 13:10:10;;;;;;;14.10;7.97;;;21.60;99.90;;;;;;5075936;28;20041;-78
2023/10/01 13:12:39;;;;;;;13.45;7.13;;;21.70;99.90;;;;;;5075830;28;20045;-75
2023/10/01 13:15:25;;;;;;;14.88;8.55;;;21.70;99.90;;;;;;5070862;28;20097;-78
2023/10/01 13:18:00;;;;;;;14.20;7.75;;;21.70;99.90;;;;;;5063863;28;20789;-76
2023/10/01 13:20:27;;;;;;;13.07;7.55;;;21.80;99.90;;;;;;5064693;28;20433;-77
2023/10/01 13:22:59;;;;;;;15.02;8.15;;;21.80;99.90;;;;;;5077308;28;20044;-77
2023/10/01 13:25:28;;;;;;;15.75;7.45;;;21.90;99.90;;;;;;5066641;28;20055;-74
2023/10/01 13:28:06;;;;;;;16.13;8.13;;;21.90;99.90;;;;;;5077742;28;20097;-75
2023/10/01 13:33:23;;;;;;;14.20;7.70;;;21.90;99.90;;;;;;5073487;28;20063;-76
2023/10/01 13:35:58;;;;;;;12.93;7.07;;;21.90;99.90;;;;;;5078186;28;20115;-76
2023/10/01 14:11:01;;;;;;;12.60;6.65;;;22.30;99.90;;;;;;5071289;28;20505;-76
2023/10/01 14:13:34;;;;;;;11.80;7.07;;;22.30;99.90;;;;;;5070537;28;20040;-75
2023/10/01 14:16:17;;;;;;;12.77;6.93;;;22.30;99.90;;;;;;5067764;28;20052;-75
2023/10/01 14:18:54;;;;;;;14.13;6.95;;;22.30;99.90;;;;;;5075221;28;20067;-74
2023/10/01 14:21:29;;;;;;;;;;;22.40;99.90;;;;;;5072381;28;20471;-75
2023/10/01 14:26:43;;;;;;;11.45;6.50;;;22.40;99.90;;;;;;5069728;28;20059;-74
2023/10/01 14:29:09;;;;;;;11.02;6.45;;;22.40;99.90;;;;;;5067942;28;20067;-74
2023/10/01 14:31:50;;;;;;;12.70;6.75;;;22.40;99.90;;;;;;5067747;28;20165;-76
2023/10/01 14:34:18;;;;;;;10.85;6.25;;;22.40;99.90;;;;;;5068523;28;20040;-85